createdAt,value
2019-04-20T00:00:54.269Z,0.0000
2019-04-20T00:02:04.382Z,0.0000
2019-04-20T00:03:03.389Z,0.0000
2019-04-20T00:04:05.372Z,0.0000
2019-04-20T00:05:07.487Z,0.0000
2019-04-20T00:06:09.158Z,0.0000
2019-04-20T00:07:10.433Z,0.0000
2019-04-20T00:08:16.762Z,0.0000
2019-04-20T00:09:24.041Z,0.0000
2019-04-20T00:10:25.638Z,0.0502
2019-04-20T00:11:36.413Z,0.0167
2019-04-20T00:12:52.090Z,0.0000
2019-04-20T00:13:47.739Z,0.0000
2019-04-20T00:14:46.222Z,0.0000
2019-04-20T00:15:47.427Z,0.0000
2019-04-20T00:16:48.607Z,0.0000
2019-04-20T00:17:55.077Z,0.0000
2019-04-20T00:18:59.135Z,0.0000
2019-04-20T00:20:10.851Z,0.0000
2019-04-20T00:21:12.612Z,0.0000
2019-04-20T00:22:16.875Z,0.0000
2019-04-20T00:23:25.222Z,0.0000
2019-04-20T00:24:30.642Z,0.0000
2019-04-20T00:25:41.786Z,0.0000
2019-04-20T00:27:08.608Z,0.0000
2019-04-20T00:28:10.947Z,0.0000
2019-04-20T00:29:07.529Z,0.0000
2019-04-20T00:30:21.255Z,0.0000
2019-04-20T00:31:19.271Z,0.0000
2019-04-20T00:32:18.557Z,0.0000
2019-04-20T00:33:32.388Z,0.0000
2019-04-20T00:34:28.259Z,0.1507
2019-04-20T00:35:27.226Z,0.0837
2019-04-20T00:36:29.076Z,0.0000
2019-04-20T00:37:30.368Z,0.0167
2019-04-20T00:38:37.631Z,0.0000
2019-04-20T00:39:38.295Z,0.0000
2019-04-20T00:40:39.535Z,0.0000
2019-04-20T00:41:48.972Z,0.0335
2019-04-20T00:42:52.484Z,0.0502
2019-04-20T00:43:58.673Z,0.4019
2019-04-20T00:45:05.876Z,0.4019
2019-04-20T00:46:14.871Z,0.0167
2019-04-20T00:47:28.409Z,0.0000
2019-04-20T00:48:27.194Z,0.0000
2019-04-20T00:49:41.393Z,0.0000
2019-04-20T00:50:44.554Z,0.0167
2019-04-20T00:52:07.627Z,0.3182
2019-04-20T00:53:02.167Z,0.2010
2019-04-20T00:53:55.272Z,0.0000
2019-04-20T00:54:56.363Z,0.0000
2019-04-20T00:55:57.550Z,0.0000
2019-04-20T00:57:12.042Z,0.2177
2019-04-20T00:58:14.735Z,0.2345
2019-04-20T00:59:25.592Z,0.0335
2019-04-20T01:00:31.313Z,0.0167
2019-04-20T01:01:46.235Z,0.0000
2019-04-20T01:02:42.294Z,0.0000
2019-04-20T01:03:52.064Z,0.0000
2019-04-20T01:04:58.349Z,0.0335
2019-04-20T01:06:12.080Z,0.0167
2019-04-20T01:07:11.399Z,0.0000
2019-04-20T01:08:03.639Z,0.0837
2019-04-20T01:09:07.439Z,0.1005
2019-04-20T01:10:09.133Z,0.0167
2019-04-20T01:11:10.544Z,0.0000
2019-04-20T01:12:18.203Z,0.0000
2019-04-20T01:13:22.846Z,0.0000
2019-04-20T01:14:37.807Z,0.0670
2019-04-20T01:15:37.525Z,0.2345
2019-04-20T01:16:44.031Z,0.0000
2019-04-20T01:17:43.612Z,0.0000
2019-04-20T01:18:47.186Z,0.2177
2019-04-20T01:19:52.693Z,0.0000
2019-04-20T01:20:58.133Z,0.0000
2019-04-20T01:22:06.663Z,0.0000
2019-04-20T01:23:12.519Z,0.0000
2019-04-20T01:24:20.143Z,0.0000
2019-04-20T01:25:28.412Z,0.0000
2019-04-20T01:26:26.548Z,0.0000
2019-04-20T01:27:43.854Z,0.0000
2019-04-20T01:28:46.404Z,0.0000
2019-04-20T01:29:47.795Z,0.0000
2019-04-20T01:31:00.051Z,0.1172
2019-04-20T01:32:09.254Z,0.2680
2019-04-20T01:33:14.932Z,0.1005
2019-04-20T01:34:19.442Z,0.0000
2019-04-20T01:35:34.473Z,0.0000
2019-04-20T01:36:36.900Z,0.0000
2019-04-20T01:37:37.503Z,0.0000
2019-04-20T01:38:47.384Z,0.2010
2019-04-20T01:39:43.506Z,0.3684
2019-04-20T01:40:44.260Z,0.4187
2019-04-20T01:41:45.600Z,0.1005
2019-04-20T01:42:46.917Z,0.0502
2019-04-20T01:43:48.152Z,0.0000
2019-04-20T01:44:52.436Z,0.2177
2019-04-20T01:46:03.415Z,0.1842
2019-04-20T01:47:04.825Z,0.1340
2019-04-20T01:48:09.668Z,0.0335
2019-04-20T01:49:18.249Z,0.0000
2019-04-20T01:50:25.616Z,0.0000
2019-04-20T01:51:30.484Z,0.0167
2019-04-20T01:52:48.285Z,0.0000
2019-04-20T01:53:53.749Z,0.2010
2019-04-20T01:55:04.847Z,0.0000
2019-04-20T01:56:07.978Z,0.1005
2019-04-20T01:57:08.532Z,0.1172
2019-04-20T01:58:25.500Z,0.0502
2019-04-20T01:59:24.000Z,0.0000
2019-04-20T02:00:21.188Z,0.0000
2019-04-20T02:01:27.496Z,0.0000
2019-04-20T02:02:29.578Z,0.2177
2019-04-20T02:03:38.538Z,0.0167
2019-04-20T02:04:43.488Z,0.0837
2019-04-20T02:05:54.008Z,0.0167
2019-04-20T02:06:56.389Z,0.0000
2019-04-20T02:07:59.055Z,0.0167
2019-04-20T02:09:09.506Z,0.0167
2019-04-20T02:10:11.383Z,0.0167
2019-04-20T02:11:23.045Z,0.0000
2019-04-20T02:12:25.376Z,0.0837
2019-04-20T02:13:34.749Z,0.2177
2019-04-20T02:14:40.969Z,0.4019
2019-04-20T02:15:44.492Z,0.2345
2019-04-20T02:16:50.847Z,0.4522
2019-04-20T02:18:03.634Z,0.4187
2019-04-20T02:19:16.334Z,0.1842
2019-04-20T02:20:23.224Z,0.0000
2019-04-20T02:21:28.705Z,0.0000
2019-04-20T02:22:38.246Z,0.0000
2019-04-20T02:23:35.064Z,0.0167
2019-04-20T02:24:29.962Z,0.3852
2019-04-20T02:25:31.264Z,0.0000
2019-04-20T02:26:32.471Z,0.4187
2019-04-20T02:27:42.830Z,0.2512
2019-04-20T02:29:08.033Z,0.2010
2019-04-20T02:30:13.417Z,0.0000
2019-04-20T02:31:32.610Z,0.2512
2019-04-20T02:35:56.756Z,0.2345
2019-04-20T02:38:10.538Z,0.2680
2019-04-20T02:39:22.213Z,0.0000
2019-04-20T02:40:15.899Z,0.0000
2019-04-20T02:41:30.062Z,0.2512
2019-04-20T02:42:37.909Z,0.0670
2019-04-20T02:44:53.018Z,0.1842
2019-04-20T02:45:48.991Z,0.0000
2019-04-20T02:49:12.900Z,0.0000
2019-04-20T02:50:13.872Z,0.0000
2019-04-20T02:51:14.888Z,0.0000
2019-04-20T02:52:28.889Z,0.0837
2019-04-20T02:53:32.727Z,0.4522
2019-04-20T02:54:36.274Z,0.1172
2019-04-20T02:59:25.048Z,0.0000
2019-04-20T03:01:03.908Z,0.0000
2019-04-20T03:02:06.421Z,0.0167
2019-04-20T03:03:07.822Z,0.0000
2019-04-20T03:04:04.970Z,0.0000
2019-04-20T03:05:21.622Z,0.0000
2019-04-20T03:06:23.003Z,0.0000
2019-04-20T03:07:31.658Z,0.0000
2019-04-20T03:08:47.837Z,0.0167
2019-04-20T03:09:50.134Z,0.0837
2019-04-20T03:11:06.495Z,0.0000
2019-04-20T03:12:10.614Z,0.1507
2019-04-20T03:13:15.405Z,0.1005
2019-04-20T03:14:14.886Z,0.0670
2019-04-20T03:15:29.577Z,0.0167
2019-04-20T03:16:27.744Z,0.0000
2019-04-20T03:17:38.981Z,0.0167
2019-04-20T03:18:40.918Z,0.5024
2019-04-20T03:19:42.548Z,0.5694
2019-04-20T03:20:53.156Z,0.1675
2019-04-20T03:22:04.120Z,0.7871
2019-04-20T03:24:19.318Z,0.3015
2019-04-20T03:25:17.895Z,0.5192
2019-04-20T03:26:22.447Z,0.1842
2019-04-20T03:27:30.890Z,0.5694
2019-04-20T03:28:37.324Z,0.6196
2019-04-20T03:29:50.936Z,0.6364
2019-04-20T03:31:20.580Z,0.6866
2019-04-20T03:34:38.448Z,0.6866
2019-04-20T03:35:20.550Z,0.7369
2019-04-20T03:36:29.775Z,0.6364
2019-04-20T03:37:34.655Z,0.3684
2019-04-20T03:38:34.834Z,0.0502
2019-04-20T03:39:39.103Z,0.2010
2019-04-20T03:40:41.383Z,0.0167
2019-04-20T03:41:39.444Z,0.6029
2019-04-20T03:42:37.938Z,0.3182
2019-04-20T03:43:40.192Z,1.0718
2019-04-20T03:44:48.907Z,0.5359
2019-04-20T03:45:56.214Z,0.3517
2019-04-20T03:46:59.746Z,0.0837
2019-04-20T03:48:12.640Z,0.2847
2019-04-20T03:49:27.995Z,0.5359
2019-04-20T03:50:35.576Z,0.4354
2019-04-20T03:51:40.036Z,0.4019
2019-04-20T03:52:43.624Z,0.4187
2019-04-20T03:53:52.369Z,0.2680
2019-04-20T03:54:47.892Z,0.4187
2019-04-20T03:56:03.752Z,0.4354
2019-04-20T03:57:17.460Z,0.2010
2019-04-20T03:58:15.348Z,0.4522
2019-04-20T03:59:16.156Z,0.2177
2019-04-20T04:00:26.322Z,0.0167
2019-04-20T04:01:47.867Z,0.2680
2019-04-20T04:02:57.580Z,0.3015
2019-04-20T04:03:53.499Z,0.6029
2019-04-20T04:04:54.735Z,0.1675
2019-04-20T04:05:55.539Z,0.4522
2019-04-20T04:06:53.923Z,0.2680
2019-04-20T04:08:05.117Z,0.5024
2019-04-20T04:09:12.270Z,0.4689
2019-04-20T04:10:23.544Z,1.1221
2019-04-20T04:11:26.066Z,0.3684
2019-04-20T04:12:27.379Z,0.4187
2019-04-20T04:13:24.964Z,0.2010
2019-04-20T04:14:26.256Z,0.4857
2019-04-20T04:15:27.572Z,0.3349
2019-04-20T04:16:37.246Z,0.4019
2019-04-20T04:17:39.994Z,0.5024
2019-04-20T04:18:46.010Z,0.7536
2019-04-20T04:19:56.795Z,0.1172
2019-04-20T04:21:01.394Z,0.1340
2019-04-20T04:22:13.827Z,0.0670
2019-04-20T04:23:22.155Z,0.1675
2019-04-20T04:24:25.017Z,0.0335
2019-04-20T04:25:29.763Z,0.0502
2019-04-20T04:26:39.080Z,0.0000
2019-04-20T04:27:48.986Z,0.5192
2019-04-20T04:28:56.351Z,0.2847
2019-04-20T04:30:02.472Z,0.7201
2019-04-20T04:31:12.123Z,0.6699
2019-04-20T04:32:18.698Z,0.4354
2019-04-20T04:34:30.820Z,0.1842
2019-04-20T04:35:26.721Z,0.2010
2019-04-20T04:36:40.599Z,0.0000
2019-04-20T04:37:51.438Z,0.2177
2019-04-20T04:39:08.879Z,0.1172
2019-04-20T04:40:01.172Z,0.0167
2019-04-20T04:42:18.782Z,0.2010
2019-04-20T04:43:19.977Z,0.0000
2019-04-20T04:44:19.193Z,0.1507
2019-04-20T04:45:14.542Z,0.0167
2019-04-20T04:46:17.053Z,0.0670
2019-04-20T04:47:18.263Z,0.0000
2019-04-20T04:48:27.640Z,0.4019
2019-04-20T04:49:31.954Z,0.1340
2019-04-20T04:50:37.352Z,0.2680
2019-04-20T04:51:49.002Z,0.4857
2019-04-20T04:52:54.570Z,0.0670
2019-04-20T04:53:57.967Z,0.1507
2019-04-20T04:55:12.818Z,0.2847
2019-04-20T04:56:09.470Z,0.0502
2019-04-20T04:57:09.563Z,0.2512
2019-04-20T04:58:10.773Z,0.1340
2019-04-20T04:59:12.771Z,0.0837
2019-04-20T05:00:17.859Z,0.3517
2019-04-20T05:01:25.894Z,0.3015
2019-04-20T05:02:32.524Z,0.2847
2019-04-20T05:03:54.016Z,0.0335
2019-04-20T05:05:07.061Z,0.0670
2019-04-20T05:06:03.240Z,0.4857
2019-04-20T05:07:03.130Z,0.2512
2019-04-20T05:08:06.296Z,0.1507
2019-04-20T05:09:09.874Z,0.3349
2019-04-20T05:10:11.787Z,0.0670
2019-04-20T05:11:13.265Z,0.0502
2019-04-20T05:12:19.662Z,0.1340
2019-04-20T05:13:21.824Z,0.2010
2019-04-20T05:14:37.454Z,0.1172
2019-04-20T05:15:44.637Z,0.2345
2019-04-20T05:16:49.936Z,0.0000
2019-04-20T05:18:01.754Z,0.0000
2019-04-20T05:19:14.780Z,0.0000
2019-04-20T05:20:13.440Z,0.0000
2019-04-20T05:21:24.506Z,0.0000
2019-04-20T05:22:24.567Z,0.0000
2019-04-20T05:23:28.281Z,0.0000
2019-04-20T05:24:33.571Z,0.0000
2019-04-20T05:25:51.981Z,0.0000
2019-04-20T05:26:56.893Z,0.0000
2019-04-20T05:27:56.434Z,0.0000
2019-04-20T05:28:53.235Z,0.0167
2019-04-20T05:29:51.397Z,0.2010
2019-04-20T05:30:58.156Z,0.2680
2019-04-20T05:32:08.163Z,0.1675
2019-04-20T05:33:11.657Z,0.3517
2019-04-20T05:34:30.899Z,0.0502
2019-04-20T05:35:37.864Z,0.4354
2019-04-20T05:36:45.053Z,0.5527
2019-04-20T05:38:05.071Z,0.0670
2019-04-20T05:39:02.718Z,0.8876
2019-04-20T05:40:07.702Z,0.4522
2019-04-20T05:41:09.909Z,0.2680
2019-04-20T05:43:20.595Z,0.0167
2019-04-20T05:44:22.137Z,0.0000
2019-04-20T05:45:29.905Z,0.0167
2019-04-20T05:46:42.266Z,0.0000
2019-04-20T05:47:47.690Z,0.0000
2019-04-20T05:48:56.221Z,0.2177
2019-04-20T05:49:56.147Z,0.3852
2019-04-20T05:51:03.647Z,0.5862
2019-04-20T05:52:27.377Z,0.7704
2019-04-20T05:53:19.326Z,0.1842
2019-04-20T05:54:25.559Z,0.0335
2019-04-20T05:55:34.499Z,0.1842
2019-04-20T05:56:44.528Z,0.0167
2019-04-20T05:57:41.674Z,0.1842
2019-04-20T05:58:53.574Z,0.0000
2019-04-20T06:00:03.505Z,0.0000
2019-04-20T06:01:06.167Z,0.0167
2019-04-20T06:02:14.061Z,0.0000
2019-04-20T06:03:18.505Z,0.0000
2019-04-20T06:04:30.054Z,0.0000
2019-04-20T06:05:28.774Z,0.0167
2019-04-20T06:06:32.920Z,0.0670
2019-04-20T06:07:42.454Z,0.0335
2019-04-20T06:08:53.968Z,0.0167
2019-04-20T06:09:54.421Z,0.0000
2019-04-20T06:11:03.841Z,0.0000
2019-04-20T06:12:13.068Z,0.0000
2019-04-20T06:13:07.514Z,0.0000
2019-04-20T06:14:05.829Z,0.2847
2019-04-20T06:15:15.625Z,0.0167
2019-04-20T06:16:29.884Z,0.0167
2019-04-20T06:17:37.309Z,0.0167
2019-04-20T06:18:37.240Z,0.1005
2019-04-20T06:19:46.964Z,0.0000
2019-04-20T06:20:52.599Z,0.0167
2019-04-20T06:22:03.328Z,0.0837
2019-04-20T06:23:12.233Z,0.2345
2019-04-20T06:24:22.454Z,0.1172
2019-04-20T06:25:40.910Z,0.2512
2019-04-20T06:26:38.268Z,0.1172
2019-04-20T06:27:38.422Z,0.4857
2019-04-20T06:28:35.621Z,0.0502
2019-04-20T06:29:45.732Z,0.2847
2019-04-20T06:30:47.748Z,0.1005
2019-04-20T06:31:57.481Z,0.1340
2019-04-20T06:33:11.490Z,0.0502
2019-04-20T06:35:30.560Z,0.0000
2019-04-20T06:36:29.294Z,0.2680
2019-04-20T06:37:31.482Z,0.1842
2019-04-20T06:38:56.416Z,0.3684
2019-04-20T06:39:44.962Z,0.3517
2019-04-20T06:40:59.393Z,0.4689
2019-04-20T06:42:07.186Z,0.6699
2019-04-20T06:43:02.504Z,0.0670
2019-04-20T06:44:03.831Z,0.0837
2019-04-20T06:45:19.801Z,0.7536
2019-04-20T06:46:31.934Z,0.3015
2019-04-20T06:47:24.909Z,0.6029
2019-04-20T06:48:40.144Z,0.1340
2019-04-20T06:49:35.325Z,0.1005
2019-04-20T06:50:38.459Z,0.3349
2019-04-20T06:51:55.618Z,0.5527
2019-04-20T06:52:54.200Z,0.4187
2019-04-20T06:53:55.853Z,0.1172
2019-04-20T06:55:07.044Z,0.3182
2019-04-20T06:56:15.949Z,0.0167
2019-04-20T06:57:29.181Z,0.4857
2019-04-20T06:58:39.558Z,0.1340
2019-04-20T06:59:38.741Z,0.9713
2019-04-20T07:00:42.147Z,0.8709
2019-04-20T07:01:56.882Z,0.7034
2019-04-20T07:03:04.519Z,1.5910
2019-04-20T07:04:10.845Z,0.7704
2019-04-20T07:05:05.644Z,0.4689
2019-04-20T07:06:29.318Z,0.5192
2019-04-20T07:07:21.228Z,0.5862
2019-04-20T07:08:42.631Z,0.5192
2019-04-20T07:09:40.081Z,0.1340
2019-04-20T07:10:37.393Z,1.7082
2019-04-20T07:11:44.020Z,0.8039
2019-04-20T07:12:48.066Z,0.2010
2019-04-20T07:13:44.482Z,0.0335
2019-04-20T07:14:54.153Z,0.4689
2019-04-20T07:16:08.321Z,0.4354
2019-04-20T07:17:29.728Z,0.9881
2019-04-20T07:18:26.478Z,1.4403
2019-04-20T07:20:39.767Z,0.3684
2019-04-20T07:21:56.234Z,0.2177
2019-04-20T07:22:46.657Z,0.2345
2019-04-20T07:23:57.621Z,0.8876
2019-04-20T07:26:10.469Z,0.7034
2019-04-20T07:27:16.972Z,0.2177
2019-04-20T07:28:24.693Z,1.3063
2019-04-20T07:29:26.952Z,1.0718
2019-04-20T07:30:29.937Z,1.5240
2019-04-20T07:31:32.039Z,1.1388
2019-04-20T07:32:48.551Z,1.2728
2019-04-20T07:33:49.461Z,0.4187
2019-04-20T07:34:58.570Z,0.7871
2019-04-20T07:35:56.197Z,1.5073
2019-04-20T07:37:28.134Z,1.1053
2019-04-20T07:38:25.598Z,1.3230
2019-04-20T07:39:22.948Z,0.5527
2019-04-20T07:40:24.629Z,0.5192
2019-04-20T07:41:42.955Z,1.7082
2019-04-20T07:42:40.704Z,1.1556
2019-04-20T07:43:57.479Z,2.0599
2019-04-20T07:44:56.647Z,1.7920
2019-04-20T07:45:55.747Z,1.9092
2019-04-20T07:47:08.892Z,1.1556
2019-04-20T07:48:13.715Z,0.7202
2019-04-20T07:49:18.174Z,2.1941
2019-04-20T07:50:14.886Z,1.7752
2019-04-20T07:51:14.388Z,1.0886
2019-04-20T07:52:14.326Z,0.5359
2019-04-20T07:53:32.121Z,0.9881
2019-04-20T07:54:50.705Z,1.9429
2019-04-20T07:56:54.885Z,1.6750
2019-04-20T07:57:53.759Z,1.1053
2019-04-20T07:58:53.416Z,1.3733
2019-04-20T08:00:13.488Z,1.6915
2019-04-20T08:01:23.512Z,1.1556
2019-04-20T08:02:34.620Z,1.9259
2019-04-20T08:03:39.048Z,2.1270
2019-04-20T08:04:36.345Z,1.9092
2019-04-20T08:05:36.450Z,2.2610
2019-04-20T08:06:38.037Z,1.2393
2019-04-20T08:07:47.476Z,0.6029
2019-04-20T08:08:57.362Z,0.9881
2019-04-20T08:09:55.671Z,0.7034
2019-04-20T08:11:17.937Z,0.8709
2019-04-20T08:12:28.250Z,1.4905
2019-04-20T08:13:38.771Z,1.5910
2019-04-20T08:14:37.979Z,0.2177
2019-04-20T08:15:49.174Z,0.6866
2019-04-20T08:17:05.388Z,0.6699
2019-04-20T08:17:58.639Z,1.0886
2019-04-20T08:19:01.206Z,1.3565
2019-04-20T08:20:05.704Z,0.9044
2019-04-20T08:21:13.397Z,0.5694
2019-04-20T08:22:19.856Z,0.5694
2019-04-20T08:23:24.418Z,1.0048
2019-04-20T08:24:27.776Z,1.0216
2019-04-20T08:25:29.280Z,1.9931
2019-04-20T08:26:29.926Z,1.9259
2019-04-20T08:27:31.650Z,0.7201
2019-04-20T08:28:43.890Z,0.8876
2019-04-20T08:29:54.297Z,1.0383
2019-04-20T08:31:00.671Z,2.2106
2019-04-20T08:32:16.070Z,2.0934
2019-04-20T08:33:13.318Z,0.7704
2019-04-20T08:34:34.097Z,0.8206
2019-04-20T08:35:34.153Z,0.3015
2019-04-20T08:36:39.267Z,0.8709
2019-04-20T08:37:48.895Z,1.5910
2019-04-20T08:40:03.061Z,1.4235
2019-04-20T08:41:00.140Z,1.4403
2019-04-20T08:42:11.635Z,1.8255
2019-04-20T08:43:34.554Z,0.7034
2019-04-20T08:44:41.366Z,1.5910
2019-04-20T08:45:31.408Z,1.7585
2019-04-20T08:46:34.968Z,1.0048
2019-04-20T08:47:47.450Z,0.3852
2019-04-20T08:48:46.350Z,0.6197
2019-04-20T08:49:57.105Z,1.3230
2019-04-20T08:50:57.237Z,2.9308
2019-04-20T08:52:20.990Z,1.8760
2019-04-20T08:53:20.265Z,1.1723
2019-04-20T08:54:12.462Z,0.0335
2019-04-20T08:55:19.752Z,0.3015
2019-04-20T08:56:21.935Z,0.2847
2019-04-20T08:57:15.652Z,1.2560
2019-04-20T08:58:18.051Z,1.3565
2019-04-20T08:59:19.357Z,0.3517
2019-04-20T09:00:29.429Z,0.3684
2019-04-20T09:01:31.936Z,1.1891
2019-04-20T09:02:32.829Z,0.9211
2019-04-20T09:03:48.775Z,2.0434
2019-04-20T09:04:51.105Z,2.1605
2019-04-20T09:05:59.563Z,1.2895
2019-04-20T09:07:04.056Z,0.9211
2019-04-20T09:08:09.318Z,1.6747
2019-04-20T09:09:33.156Z,2.5624
2019-04-20T09:10:34.501Z,1.4738
2019-04-20T09:11:45.211Z,1.0893
2019-04-20T09:12:40.854Z,1.8594
2019-04-20T09:13:39.119Z,1.5746
2019-04-20T09:14:38.473Z,1.7419
2019-04-20T09:15:40.974Z,3.2490
2019-04-20T09:16:50.449Z,1.4235
2019-04-20T09:17:57.115Z,0.9378
2019-04-20T09:19:03.640Z,1.2895
2019-04-20T09:20:07.136Z,1.0551
2019-04-20T09:21:21.522Z,0.1340
2019-04-20T09:22:24.466Z,0.9378
2019-04-20T09:23:38.077Z,0.5527
2019-04-20T09:24:51.490Z,2.1106
2019-04-20T09:26:04.774Z,2.3951
2019-04-20T09:26:54.560Z,1.0718
2019-04-20T09:27:51.693Z,1.3398
2019-04-20T09:29:05.400Z,0.9548
2019-04-20T09:30:09.389Z,2.1771
2019-04-20T09:31:35.860Z,0.8206
2019-04-20T09:32:29.014Z,0.8206
2019-04-20T09:33:34.843Z,1.4068
2019-04-20T09:34:41.717Z,1.7420
2019-04-20T09:35:43.202Z,1.5074
2019-04-20T09:36:46.250Z,1.5073
2019-04-20T09:37:59.963Z,1.2728
2019-04-20T09:39:01.055Z,1.4403
2019-04-20T09:40:16.116Z,0.8876
2019-04-20T09:41:18.492Z,1.9929
2019-04-20T09:42:05.254Z,1.9433
2019-04-20T09:43:06.697Z,1.2895
2019-04-20T09:44:08.865Z,1.9260
2019-04-20T09:45:19.795Z,1.5073
2019-04-20T09:46:16.274Z,0.7536
2019-04-20T09:47:25.863Z,1.0886
2019-04-20T09:48:33.372Z,0.8541
2019-04-20T09:49:42.504Z,1.4406
2019-04-20T09:50:56.480Z,1.8589
2019-04-20T09:51:57.516Z,1.3065
2019-04-20T09:53:02.476Z,2.2953
2019-04-20T09:54:05.992Z,1.3566
2019-04-20T09:55:14.677Z,2.4117
2019-04-20T09:56:25.598Z,1.8089
2019-04-20T09:57:29.464Z,1.4236
2019-04-20T09:58:30.854Z,2.0266
2019-04-20T09:59:37.183Z,1.6583
2019-04-20T10:00:47.209Z,1.3063
2019-04-20T10:01:44.610Z,2.0599
2019-04-20T10:02:44.687Z,0.6866
2019-04-20T10:03:47.064Z,1.1723
2019-04-20T10:04:49.437Z,1.4074
2019-04-20T10:05:51.618Z,0.9044
2019-04-20T10:06:52.842Z,0.2177
2019-04-20T10:07:58.704Z,0.4354
2019-04-20T10:09:03.471Z,1.9931
2019-04-20T10:10:17.901Z,1.5910
2019-04-20T10:11:13.869Z,2.6127
2019-04-20T10:12:15.805Z,2.5795
2019-04-20T10:13:17.481Z,2.2779
2019-04-20T10:14:20.046Z,1.8426
2019-04-20T10:15:25.934Z,1.4403
2019-04-20T10:16:27.489Z,0.7704
2019-04-20T10:17:31.749Z,1.6916
2019-04-20T10:18:41.351Z,1.8267
2019-04-20T10:19:41.810Z,0.5527
2019-04-20T10:20:45.375Z,1.0385
2019-04-20T10:21:46.786Z,1.4238
2019-04-20T10:22:46.982Z,1.4738
2019-04-20T10:23:48.278Z,1.7585
2019-04-20T10:24:51.831Z,2.2617
2019-04-20T10:25:54.369Z,0.5024
2019-04-20T10:26:56.605Z,1.9428
2019-04-20T10:27:57.883Z,1.3230
2019-04-20T10:28:59.871Z,0.6531
2019-04-20T10:30:04.179Z,1.4570
2019-04-20T10:31:08.430Z,2.6629
2019-04-20T10:32:14.198Z,2.8641
2019-04-20T10:33:15.911Z,1.7588
2019-04-20T10:34:17.999Z,1.1891
2019-04-20T10:35:21.330Z,1.2729
2019-04-20T10:36:23.635Z,2.5288
2019-04-20T10:37:24.906Z,1.2059
2019-04-20T10:38:27.455Z,2.3448
2019-04-20T10:39:29.084Z,1.4570
2019-04-20T10:40:44.771Z,0.8039
2019-04-20T10:41:45.183Z,1.8267
2019-04-20T10:42:43.903Z,0.6364
2019-04-20T10:43:45.241Z,1.9434
2019-04-20T10:44:48.162Z,1.5742
2019-04-20T10:45:50.852Z,1.4905
2019-04-20T10:46:53.362Z,2.2947
2019-04-20T10:47:54.995Z,2.1940
2019-04-20T10:49:02.171Z,2.4116
2019-04-20T10:50:03.122Z,1.4235
2019-04-20T10:51:05.221Z,1.5910
2019-04-20T10:52:07.621Z,1.7418
2019-04-20T10:53:09.939Z,2.9980
2019-04-20T10:54:12.194Z,0.7704
2019-04-20T10:55:14.696Z,1.1892
2019-04-20T10:56:15.979Z,2.1103
2019-04-20T10:57:17.777Z,3.3665
2019-04-20T10:58:19.765Z,3.2331
2019-04-20T10:59:21.464Z,2.6963
2019-04-20T11:00:23.814Z,2.3620
2019-04-20T11:01:25.400Z,2.1793
2019-04-20T11:02:27.749Z,1.4572
2019-04-20T11:03:29.927Z,1.0718
2019-04-20T11:04:32.734Z,1.6245
2019-04-20T11:05:34.776Z,1.7082
2019-04-20T11:06:36.491Z,0.6364
2019-04-20T11:07:38.791Z,1.3901
2019-04-20T11:08:40.464Z,1.4581
2019-04-20T11:09:42.827Z,1.7752
2019-04-20T11:10:55.439Z,0.2680
2019-04-20T11:11:50.376Z,0.9379
2019-04-20T11:12:52.498Z,1.1053
2019-04-20T11:13:53.769Z,0.1675
2019-04-20T11:14:56.359Z,1.3063
2019-04-20T11:15:57.652Z,1.2058
2019-04-20T11:17:00.237Z,1.3565
2019-04-20T11:18:01.676Z,2.8137
2019-04-20T11:19:03.248Z,2.0264
2019-04-20T11:20:05.496Z,0.8206
2019-04-20T11:21:07.390Z,1.1221
2019-04-20T11:22:08.697Z,1.2728
2019-04-20T11:23:10.785Z,1.9260
2019-04-20T11:24:14.212Z,1.4570
2019-04-20T11:25:16.552Z,1.2560
2019-04-20T11:26:18.125Z,0.4689
2019-04-20T11:27:18.418Z,1.9596
2019-04-20T11:28:19.843Z,2.3784
2019-04-20T11:29:22.204Z,1.6077
2019-04-20T11:30:23.841Z,1.8924
2019-04-20T11:31:26.851Z,1.9096
2019-04-20T11:32:30.428Z,2.2616
2019-04-20T11:33:32.307Z,0.1842
2019-04-20T11:34:37.850Z,0.2345
2019-04-20T11:35:43.045Z,0.7369
2019-04-20T11:36:45.476Z,1.1891
2019-04-20T11:37:47.425Z,1.6916
2019-04-20T11:38:49.212Z,1.3568
2019-04-20T11:39:50.723Z,2.7802
2019-04-20T11:41:04.146Z,3.6014
2019-04-20T11:41:59.507Z,2.8974
2019-04-20T11:43:01.664Z,1.4907
2019-04-20T11:44:02.931Z,1.3565
2019-04-20T11:45:04.798Z,3.1988
2019-04-20T11:46:06.907Z,1.8758
2019-04-20T11:47:08.501Z,0.5694
2019-04-20T11:48:09.806Z,1.3902
2019-04-20T11:49:10.982Z,2.2610
2019-04-20T11:50:13.402Z,1.2393
2019-04-20T11:51:15.788Z,0.4522
2019-04-20T11:52:21.159Z,1.3063
2019-04-20T11:53:26.520Z,0.4857
2019-04-20T11:54:28.633Z,1.0048
2019-04-20T11:55:30.681Z,0.8039
2019-04-20T11:56:36.637Z,0.2512
2019-04-20T11:57:39.561Z,1.2393
2019-04-20T11:58:40.979Z,1.1556
2019-04-20T11:59:41.257Z,1.9427
2019-04-20T12:00:54.956Z,1.3230
2019-04-20T12:01:54.758Z,0.6196
2019-04-20T12:02:58.559Z,0.7201
2019-04-20T12:04:17.199Z,1.6412
2019-04-20T12:05:20.120Z,1.6077
2019-04-20T12:06:14.871Z,1.4068
2019-04-20T12:07:17.109Z,1.2225
2019-04-20T12:08:19.006Z,1.3063
2019-04-20T12:09:21.494Z,0.4019
2019-04-20T12:10:25.569Z,1.4570
2019-04-20T12:11:37.107Z,1.9763
2019-04-20T12:12:41.511Z,2.3954
2019-04-20T12:13:40.685Z,1.8424
2019-04-20T12:14:42.939Z,2.2441
2019-04-20T12:15:45.419Z,0.5024
2019-04-20T12:16:47.824Z,1.0719
2019-04-20T12:17:49.517Z,2.3781
2019-04-20T12:18:52.416Z,1.7417
2019-04-20T12:19:53.721Z,2.3614
2019-04-20T12:20:54.956Z,2.5288
2019-04-20T12:21:56.205Z,2.5791
2019-04-20T12:22:58.159Z,2.1606
2019-04-20T12:24:00.382Z,1.6747
2019-04-20T12:25:02.557Z,1.1891
2019-04-20T12:26:04.763Z,0.7034
2019-04-20T12:27:06.980Z,1.3900
2019-04-20T12:28:09.442Z,1.0220
2019-04-20T12:29:11.979Z,1.7920
2019-04-20T12:30:13.203Z,1.6752
2019-04-20T12:31:20.108Z,0.8374
2019-04-20T12:32:21.828Z,0.8541
2019-04-20T12:33:24.351Z,0.1507
2019-04-20T12:34:26.475Z,1.2058
2019-04-20T12:35:29.905Z,1.8087
2019-04-20T12:36:31.251Z,0.9044
2019-04-20T12:37:34.166Z,0.9713
2019-04-20T12:38:37.017Z,1.6412
2019-04-20T12:39:39.426Z,1.4403
2019-04-20T12:40:41.946Z,0.7369
2019-04-20T12:41:49.665Z,1.8255
2019-04-20T12:42:50.948Z,2.3446
2019-04-20T12:43:52.205Z,2.6295
2019-04-20T12:44:53.491Z,2.3279
2019-04-20T12:45:55.851Z,2.1102
2019-04-20T12:46:57.276Z,0.6531
2019-04-20T12:47:59.646Z,0.5694
2019-04-20T12:49:01.873Z,0.3852
2019-04-20T12:50:03.524Z,0.3517
2019-04-20T12:51:05.785Z,1.6747
2019-04-20T12:52:08.279Z,1.6077
2019-04-20T12:53:10.651Z,3.0313
2019-04-20T12:54:11.914Z,1.5073
2019-04-20T12:55:14.598Z,1.3235
2019-04-20T12:56:16.939Z,0.8876
2019-04-20T12:57:18.572Z,1.6078
2019-04-20T12:58:20.859Z,2.0601
2019-04-20T12:59:23.489Z,3.4332
2019-04-20T13:00:25.691Z,1.3900
2019-04-20T13:01:28.030Z,1.1053
2019-04-20T13:02:29.383Z,1.6915
2019-04-20T13:03:31.755Z,1.8760
2019-04-20T13:04:33.235Z,2.3949
2019-04-20T13:05:35.967Z,1.5407
2019-04-20T13:06:38.977Z,2.0767
2019-04-20T13:07:44.849Z,1.5240
2019-04-20T13:08:51.750Z,2.1939
2019-04-20T13:09:53.175Z,1.7082
2019-04-20T13:10:54.970Z,1.5073
2019-04-20T13:12:02.531Z,1.2225
2019-04-20T13:13:02.599Z,1.0886
2019-04-20T13:14:04.222Z,0.6866
2019-04-20T13:15:06.555Z,1.6747
2019-04-20T13:16:08.283Z,0.7536
2019-04-20T13:17:08.561Z,1.2393
2019-04-20T13:18:11.442Z,1.8255
2019-04-20T13:19:13.114Z,1.7920
2019-04-20T13:20:14.378Z,2.1436
2019-04-20T13:21:16.728Z,1.5407
2019-04-20T13:22:19.036Z,1.8087
2019-04-20T13:23:20.468Z,1.4905
2019-04-20T13:24:22.962Z,1.9092
2019-04-20T13:25:25.074Z,1.7585
2019-04-20T13:26:28.843Z,2.6628
2019-04-20T13:27:31.142Z,2.8973
2019-04-20T13:28:32.856Z,1.5240
2019-04-20T13:29:35.094Z,1.3900
2019-04-20T13:30:37.609Z,2.5791
2019-04-20T13:31:40.001Z,2.1939
2019-04-20T13:32:41.543Z,1.4738
2019-04-20T13:33:43.217Z,0.5527
2019-04-20T13:34:44.590Z,0.2177
2019-04-20T13:35:46.159Z,1.0048
2019-04-20T13:36:48.412Z,1.5407
2019-04-20T13:37:50.264Z,2.2441
2019-04-20T13:38:52.326Z,0.8876
2019-04-20T13:39:53.587Z,1.5575
2019-04-20T13:40:55.751Z,1.2393
2019-04-20T13:42:08.084Z,3.4332
2019-04-20T13:43:03.557Z,2.3614
2019-04-20T13:44:06.263Z,1.8087
2019-04-20T13:45:08.807Z,1.5407
2019-04-20T13:46:11.139Z,1.7920
2019-04-20T13:47:12.780Z,0.6699
2019-04-20T13:48:15.196Z,1.0048
2019-04-20T13:49:16.467Z,1.4905
2019-04-20T13:50:18.009Z,1.2058
2019-04-20T13:51:19.233Z,1.4570
2019-04-20T13:52:21.060Z,0.6364
2019-04-20T13:53:23.606Z,0.4019